Townley, New Jersey
Current Conditions -  °F | °C
As of 4:51 PM on Friday 24 Oct 2014 (Local Time) from KEWR Reporting Station
Broken Clouds Broken Clouds  
Wind Chill: 68°   Ceiling: 25000
Heat Index: 68°   Visibility: 10mi
Dew Point: 43°   Wind: 12mph
Humidity: 40%   Direction: 320°NW
Pressure: 29.76"   Gusts: 17mph
Location:  40.6941°N, 74.2694°W
Report Text: KEWR 242051Z 32010G15KT 10SM SCT050 BKN250 20/06 A2976 RMK AO2 SLP076 T02000061 55011
Loading
Personal Weather Stations






























Interactive Weather Map
Tropical Storm Tracking
New forecast layout! Learn more

10-Day Weather Forecast

Advertisements
Track Severe Weather on mobile